createdAt,value
2019-01-20T00:04:45.593Z,14.00
2019-01-20T00:09:50.781Z,15.47
2019-01-20T00:14:55.962Z,15.20
2019-01-20T00:20:01.133Z,16.63
2019-01-20T00:25:08.609Z,18.53
2019-01-20T00:30:14.486Z,18.93
2019-01-20T00:35:20.052Z,15.87
2019-01-20T00:40:25.511Z,14.37
2019-01-20T00:45:30.693Z,16.93
2019-01-20T00:50:36.281Z,19.00
2019-01-20T00:55:41.391Z,18.33
2019-01-20T01:00:46.581Z,19.27
2019-01-20T01:05:51.743Z,17.27
2019-01-20T01:10:56.982Z,22.17
2019-01-20T01:16:02.475Z,18.77
2019-01-20T01:21:08.035Z,23.57
2019-01-20T01:26:13.205Z,19.60
2019-01-20T01:31:19.461Z,21.70
2019-01-20T01:36:24.631Z,19.83
2019-01-20T01:41:30.492Z,16.67
2019-01-20T01:46:37.585Z,18.30
2019-01-20T01:51:42.814Z,20.60
2019-01-20T01:56:48.027Z,17.97
2019-01-20T02:01:53.884Z,23.53
2019-01-20T02:06:59.113Z,26.27
2019-01-20T02:12:04.787Z,19.73
2019-01-20T02:17:09.977Z,19.73
2019-01-20T02:22:15.150Z,20.87
2019-01-20T02:27:20.667Z,21.93
2019-01-20T02:32:25.882Z,19.87
2019-01-20T02:37:32.474Z,19.80
2019-01-20T02:42:37.656Z,20.17
2019-01-20T02:47:44.938Z,20.80
2019-01-20T02:52:50.623Z,20.27
2019-01-20T02:57:56.968Z,21.03
2019-01-20T03:03:02.152Z,20.87
2019-01-20T03:08:07.339Z,23.10
2019-01-20T03:13:12.893Z,23.20
2019-01-20T03:18:18.413Z,20.83
2019-01-20T03:23:23.918Z,22.47
2019-01-20T03:28:29.745Z,22.77
2019-01-20T03:33:35.617Z,26.33
2019-01-20T03:38:40.996Z,22.23
2019-01-20T03:43:46.324Z,22.07
2019-01-20T03:48:52.346Z,22.67
2019-01-20T03:53:57.559Z,25.83
2019-01-20T03:59:02.738Z,23.80
2019-01-20T04:04:08.384Z,23.73
2019-01-20T04:09:13.587Z,23.27
2019-01-20T04:14:18.882Z,25.20
2019-01-20T04:19:24.691Z,21.83
2019-01-20T04:24:30.429Z,23.43
2019-01-20T04:29:35.674Z,20.20
2019-01-20T04:34:40.854Z,25.67
2019-01-20T04:39:46.047Z,24.00
2019-01-20T04:44:51.435Z,26.13
2019-01-20T04:49:56.895Z,22.83
2019-01-20T04:55:02.215Z,19.63
2019-01-20T05:00:11.254Z,24.17
2019-01-20T05:05:17.015Z,20.87
2019-01-20T05:10:22.913Z,23.57
2019-01-20T05:15:28.092Z,24.33
2019-01-20T05:20:34.007Z,27.57
2019-01-20T05:25:40.037Z,28.57
2019-01-20T05:30:45.878Z,25.77
2019-01-20T05:35:51.155Z,26.43
2019-01-20T05:40:56.351Z,29.50
2019-01-20T05:46:01.924Z,24.53
2019-01-20T05:51:07.489Z,26.17
2019-01-20T05:56:12.690Z,27.03
2019-01-20T06:01:18.228Z,27.17
2019-01-20T06:06:23.415Z,23.77
2019-01-20T06:11:29.390Z,24.53
2019-01-20T06:16:34.592Z,24.83
2019-01-20T06:21:40.068Z,30.13
2019-01-20T06:26:46.595Z,27.93
2019-01-20T06:31:52.427Z,30.93
2019-01-20T06:36:57.964Z,31.73
2019-01-20T06:42:03.437Z,27.77
2019-01-20T06:47:10.262Z,28.30
2019-01-20T06:52:15.936Z,28.37
2019-01-20T06:57:21.189Z,31.20
2019-01-20T07:02:26.360Z,30.50
2019-01-20T07:07:31.980Z,24.93
2019-01-20T07:12:38.069Z,27.60
2019-01-20T07:17:43.259Z,26.43
2019-01-20T07:22:48.499Z,30.23
2019-01-20T07:27:54.076Z,27.17
2019-01-20T07:33:00.281Z,30.20
2019-01-20T07:38:05.581Z,30.47
2019-01-20T07:43:16.700Z,30.40
2019-01-20T07:48:17.883Z,28.33
2019-01-20T07:53:23.107Z,29.47
2019-01-20T07:58:29.160Z,30.50
2019-01-20T08:03:34.368Z,31.60
2019-01-20T08:08:39.542Z,32.27
2019-01-20T08:13:44.864Z,29.33
2019-01-20T08:18:50.356Z,30.60
2019-01-20T08:28:32.674Z,34.47
2019-01-20T08:36:41.204Z,34.53
2019-01-20T08:41:46.753Z,30.43
2019-01-20T08:50:59.463Z,33.90
2019-01-20T08:56:43.605Z,37.93
2019-01-20T09:05:17.911Z,36.63
2019-01-20T09:10:25.738Z,35.17
2019-01-20T09:15:32.409Z,32.13
2019-01-20T09:20:37.607Z,31.07
2019-01-20T09:25:43.037Z,30.93
2019-01-20T09:30:48.711Z,33.77
2019-01-20T09:35:54.208Z,31.03
2019-01-20T09:40:59.402Z,31.93
2019-01-20T09:46:04.871Z,35.40
2019-01-20T09:51:10.449Z,29.77
2019-01-20T09:56:16.445Z,28.60
2019-01-20T10:01:21.640Z,27.70
2019-01-20T10:06:27.239Z,26.07
2019-01-20T10:11:32.828Z,29.47
2019-01-20T10:16:38.769Z,28.87
2019-01-20T10:21:44.319Z,28.53
2019-01-20T10:26:50.595Z,30.73
2019-01-20T10:31:56.178Z,28.30
2019-01-20T10:37:03.517Z,30.30
2019-01-20T10:42:08.720Z,27.47
2019-01-20T10:47:13.906Z,32.07
2019-01-20T10:52:19.511Z,25.30
2019-01-20T10:57:25.798Z,30.07
2019-01-20T11:02:32.738Z,32.10
2019-01-20T11:07:38.038Z,30.17
2019-01-20T11:12:43.244Z,28.20
2019-01-20T11:17:48.781Z,30.60
2019-01-20T11:22:54.652Z,30.77
2019-01-20T11:28:00.407Z,28.20
2019-01-20T11:33:06.296Z,29.17
2019-01-20T11:38:11.526Z,27.73
2019-01-20T11:43:16.713Z,28.93
2019-01-20T11:48:22.129Z,29.17
2019-01-20T11:53:27.623Z,24.93
2019-01-20T11:58:33.490Z,26.80
2019-01-20T12:03:38.991Z,25.87
2019-01-20T12:08:44.719Z,25.97
2019-01-20T12:13:49.952Z,26.63
2019-01-20T12:18:55.567Z,26.00
2019-01-20T12:24:01.025Z,26.80
2019-01-20T12:29:06.499Z,24.73
2019-01-20T12:34:11.957Z,28.47
2019-01-20T12:39:17.210Z,25.47
2019-01-20T12:44:23.031Z,24.40
2019-01-20T12:49:28.563Z,26.10
2019-01-20T12:54:33.886Z,27.57
2019-01-20T12:59:39.668Z,26.33
2019-01-20T13:04:45.094Z,26.77
2019-01-20T13:09:50.797Z,26.60
2019-01-20T13:14:56.369Z,26.10
2019-01-20T13:20:02.594Z,26.63
2019-01-20T13:25:10.200Z,21.13
2019-01-20T13:30:18.263Z,21.73
2019-01-20T13:35:25.332Z,20.40
2019-01-20T13:40:36.563Z,25.93
2019-01-20T13:45:42.068Z,23.37
2019-01-20T13:50:48.170Z,22.10
2019-01-20T13:55:53.644Z,23.20
2019-01-20T14:00:59.164Z,23.60
2019-01-20T14:06:05.459Z,19.53
2019-01-20T14:11:10.979Z,20.43
2019-01-20T14:16:16.480Z,20.37
2019-01-20T14:21:21.711Z,22.03
2019-01-20T14:26:26.896Z,22.33
2019-01-20T14:31:32.131Z,21.47
2019-01-20T14:36:37.406Z,22.30
2019-01-20T14:41:42.711Z,22.23
2019-01-20T14:46:48.222Z,23.77
2019-01-20T14:51:54.391Z,27.97
2019-01-20T14:56:59.687Z,28.27
2019-01-20T15:02:05.467Z,27.40
2019-01-20T15:07:11.046Z,27.07
2019-01-20T15:12:16.259Z,30.07
2019-01-20T15:17:21.881Z,28.80
2019-01-20T15:22:27.479Z,29.80
2019-01-20T15:27:33.251Z,30.43
2019-01-20T15:32:38.471Z,25.77
2019-01-20T15:37:43.653Z,28.10
2019-01-20T15:42:49.373Z,29.03
2019-01-20T15:47:55.034Z,29.97
2019-01-20T15:53:01.902Z,28.67
2019-01-20T15:58:07.430Z,27.07
2019-01-20T16:03:12.955Z,27.13
2019-01-20T16:08:19.106Z,28.50
2019-01-20T16:13:24.679Z,31.37
2019-01-20T16:18:29.883Z,28.67
2019-01-20T16:23:35.350Z,29.60
2019-01-20T16:28:41.044Z,31.60
2019-01-20T16:33:46.239Z,35.03
2019-01-20T16:38:51.448Z,34.03
2019-01-20T16:43:57.667Z,29.80
2019-01-20T16:49:02.822Z,33.10
2019-01-20T16:54:08.323Z,30.27
2019-01-20T16:59:13.734Z,31.00
2019-01-20T17:04:19.563Z,35.60
2019-01-20T17:09:26.210Z,34.73
2019-01-20T17:14:31.467Z,34.20
2019-01-20T17:19:36.643Z,32.87
2019-01-20T17:24:41.869Z,31.70
2019-01-20T17:29:47.057Z,37.80
2019-01-20T17:34:52.575Z,40.43
2019-01-20T17:39:58.320Z,34.57
2019-01-20T17:45:03.605Z,36.17
2019-01-20T17:50:13.263Z,32.37
2019-01-20T17:55:18.719Z,33.33
2019-01-20T18:00:29.978Z,33.20
2019-01-20T18:05:35.674Z,38.83
2019-01-20T18:10:41.007Z,40.17
2019-01-20T18:15:46.537Z,39.33
2019-01-20T18:20:51.871Z,35.47
2019-01-20T18:25:57.456Z,40.30
2019-01-20T18:31:03.931Z,41.23
2019-01-20T18:36:09.164Z,49.67
2019-01-20T18:41:15.005Z,47.23
2019-01-20T18:46:20.624Z,48.33
2019-01-20T18:51:25.906Z,52.33
2019-01-20T18:56:31.512Z,41.80
2019-01-20T19:01:36.718Z,43.77
2019-01-20T19:06:41.898Z,46.40
2019-01-20T19:11:47.560Z,45.50
2019-01-20T19:16:52.768Z,45.67
2019-01-20T19:21:58.378Z,45.73
2019-01-20T19:27:03.985Z,47.73
2019-01-20T19:32:09.687Z,44.10
2019-01-20T19:37:15.222Z,45.93
2019-01-20T19:42:20.430Z,48.67
2019-01-20T19:47:25.658Z,43.70
2019-01-20T19:52:31.127Z,42.93
2019-01-20T19:57:36.316Z,47.00
2019-01-20T20:02:41.529Z,40.20
2019-01-20T20:07:46.722Z,41.27
2019-01-20T20:12:52.691Z,41.13
2019-01-20T20:17:57.917Z,41.33
2019-01-20T20:23:03.124Z,40.67
2019-01-20T20:28:08.653Z,43.63
2019-01-20T20:33:13.839Z,41.60
2019-01-20T20:38:19.021Z,46.33
2019-01-20T20:43:24.529Z,42.17
2019-01-20T20:48:30.007Z,44.27
2019-01-20T20:53:35.195Z,44.97
2019-01-20T20:58:40.454Z,44.63
2019-01-20T21:03:46.269Z,40.97
2019-01-20T21:08:51.737Z,48.20
2019-01-20T21:13:56.935Z,47.83
2019-01-20T21:19:02.109Z,44.33
2019-01-20T21:24:07.424Z,42.10
2019-01-20T21:29:13.525Z,43.57
2019-01-20T21:34:18.999Z,47.33
2019-01-20T21:39:24.178Z,47.37
2019-01-20T21:44:29.389Z,42.57
2019-01-20T21:49:35.867Z,46.57
2019-01-20T21:54:42.045Z,47.40
2019-01-20T21:59:47.230Z,48.00
2019-01-20T22:04:52.539Z,46.20
2019-01-20T22:09:57.729Z,41.97
2019-01-20T22:15:02.937Z,49.17
2019-01-20T22:20:11.056Z,46.20
2019-01-20T22:25:16.307Z,44.90
2019-01-20T22:30:23.433Z,49.73
2019-01-20T22:35:29.339Z,49.23
2019-01-20T22:40:34.833Z,47.50
2019-01-20T22:45:40.291Z,49.20
2019-01-20T22:50:45.491Z,55.20
2019-01-20T22:55:50.922Z,53.53
2019-01-20T23:01:00.072Z,48.47
2019-01-20T23:06:05.803Z,47.13
2019-01-20T23:11:11.310Z,55.63
2019-01-20T23:16:16.788Z,49.43
2019-01-20T23:21:21.981Z,51.20
2019-01-20T23:26:27.178Z,53.50
2019-01-20T23:31:32.504Z,54.93
2019-01-20T23:36:37.979Z,52.63
2019-01-20T23:41:43.293Z,47.53
2019-01-20T23:46:48.752Z,49.97
2019-01-20T23:51:54.543Z,55.10
2019-01-20T23:57:00.010Z,52.03
